createdAt,value
2022-12-23T00:05:11.638Z,2.6
2022-12-23T00:10:55.617Z,2.7
2022-12-23T00:16:40.788Z,2.7
2022-12-23T00:22:23.632Z,3.1
2022-12-23T00:28:06.541Z,2.9
2022-12-23T00:33:50.685Z,2.4
2022-12-23T00:39:33.962Z,2.4
2022-12-23T00:45:17.222Z,2.3
2022-12-23T00:51:00.391Z,2.5
2022-12-23T00:56:43.473Z,2.3
2022-12-23T01:02:27.155Z,2.1
2022-12-23T01:08:11.897Z,2.2
2022-12-23T01:13:55.193Z,2
2022-12-23T01:19:38.557Z,2
2022-12-23T01:25:21.944Z,2.2
2022-12-23T01:31:06.426Z,2.3
2022-12-23T01:36:49.419Z,2.1
2022-12-23T01:42:32.373Z,2.3
2022-12-23T01:48:17.457Z,2.2
2022-12-23T01:54:02.887Z,2.4
2022-12-23T01:59:47.123Z,2.4
2022-12-23T02:05:30.007Z,2.3
2022-12-23T02:11:20.630Z,2.4
2022-12-23T02:17:09.211Z,2.1
2022-12-23T02:23:01.699Z,1.9
2022-12-23T02:28:58.568Z,2
2022-12-23T02:34:44.296Z,2
2022-12-23T02:40:31.422Z,1.9
2022-12-23T02:46:19.873Z,2
2022-12-23T02:52:04.678Z,1.7
2022-12-23T02:57:50.764Z,1.8
2022-12-23T03:03:33.809Z,1.7
2022-12-23T03:09:20.116Z,1.7
2022-12-23T03:15:13.415Z,1.6
2022-12-23T03:21:02.263Z,1.7
2022-12-23T03:26:49.874Z,1.7
2022-12-23T03:32:36.206Z,1.5
2022-12-23T03:38:21.129Z,1.8
2022-12-23T03:44:07.572Z,1.5
2022-12-23T03:49:53.675Z,1.4
2022-12-23T03:55:39.182Z,1.3
2022-12-23T04:01:27.594Z,1.5
2022-12-23T04:07:12.651Z,1.5
2022-12-23T04:12:55.925Z,1.2
2022-12-23T04:18:38.650Z,1.5
2022-12-23T04:24:21.659Z,1.4
2022-12-23T04:30:04.638Z,1.3
2022-12-23T04:35:47.506Z,1.3
2022-12-23T04:41:30.473Z,1.1
2022-12-23T04:47:13.438Z,1.1
2022-12-23T04:52:57.290Z,1.2
2022-12-23T04:58:40.306Z,1.3
2022-12-23T05:04:23.246Z,1.6
2022-12-23T05:10:06.371Z,1.3
2022-12-23T05:15:50.864Z,1.2
2022-12-23T05:21:34.887Z,1.1
2022-12-23T05:27:17.813Z,1.3
2022-12-23T05:33:00.945Z,1.2
2022-12-23T05:38:44.077Z,1.3
2022-12-23T05:44:27.015Z,1.3
2022-12-23T05:50:10.674Z,1.1
2022-12-23T05:55:54.065Z,1.1
2022-12-23T06:01:37.820Z,1.5
2022-12-23T06:07:21.075Z,1.3
2022-12-23T06:13:04.261Z,1.1
2022-12-23T06:18:47.298Z,1
2022-12-23T06:24:30.706Z,1.1
2022-12-23T06:30:14.554Z,0.9
2022-12-23T06:35:57.337Z,1
2022-12-23T06:41:41.460Z,1
2022-12-23T06:47:24.245Z,1
2022-12-23T06:53:07.146Z,1
2022-12-23T06:58:50.890Z,1.4
2022-12-23T07:04:33.723Z,1
2022-12-23T07:10:16.668Z,1
2022-12-23T07:15:59.631Z,1.2
2022-12-23T07:21:42.364Z,1.1
2022-12-23T07:27:25.320Z,1.1
2022-12-23T07:33:07.872Z,1
2022-12-23T07:38:51.006Z,1.1
2022-12-23T07:44:33.982Z,1.1
2022-12-23T07:50:17.091Z,1.2
2022-12-23T07:56:00.199Z,1.2
2022-12-23T08:01:43.649Z,1.5
2022-12-23T08:07:27.915Z,1.2
2022-12-23T08:13:10.743Z,1.9
2022-12-23T08:18:53.616Z,3.1
2022-12-23T08:24:37.404Z,1.7
2022-12-23T08:30:20.645Z,1.6
2022-12-23T08:36:03.589Z,1.8
2022-12-23T08:41:47.477Z,2.2
2022-12-23T08:47:31.441Z,2
2022-12-23T08:53:14.929Z,1.9
2022-12-23T08:58:58.154Z,2.1
2022-12-23T09:04:41.615Z,1.9
2022-12-23T09:10:24.760Z,2.2
2022-12-23T09:16:09.062Z,1.9
2022-12-23T09:21:51.982Z,2.2
2022-12-23T09:27:34.838Z,1.9
2022-12-23T09:33:17.558Z,2.3
2022-12-23T09:39:00.645Z,2.2
2022-12-23T09:45:05.082Z,2.5
2022-12-23T09:50:48.222Z,2.6
2022-12-23T09:56:34.383Z,2.5
2022-12-23T10:02:24.363Z,2.2
2022-12-23T10:08:11.366Z,2.3
2022-12-23T10:13:56.358Z,2.1
2022-12-23T10:19:42.050Z,2.2
2022-12-23T10:25:29.761Z,2.2
2022-12-23T10:31:42.555Z,2.5
2022-12-23T10:37:25.020Z,2.2
2022-12-23T10:43:13.412Z,2.4
2022-12-23T10:49:01.685Z,2.5
2022-12-23T10:54:45.704Z,2.4
2022-12-23T11:00:29.250Z,2.5
2022-12-23T11:06:13.012Z,2.4
2022-12-23T11:12:01.395Z,2.2
2022-12-23T11:17:44.295Z,2.3
2022-12-23T11:23:30.560Z,2.1
2022-12-23T11:29:15.643Z,2.1
2022-12-23T11:34:58.708Z,2.7
2022-12-23T11:40:46.542Z,2.8
2022-12-23T11:46:32.320Z,3
2022-12-23T11:52:18.502Z,2.1
2022-12-23T11:58:01.991Z,2.1
2022-12-23T12:03:48.643Z,2.3
2022-12-23T12:09:32.658Z,1.8
2022-12-23T12:15:26.979Z,1.5
2022-12-23T12:21:12.505Z,1.3
2022-12-23T12:26:56.880Z,1.2
2022-12-23T12:32:44.413Z,1.5
2022-12-23T12:38:28.781Z,1.2
2022-12-23T12:44:17.087Z,1.2
2022-12-23T12:50:01.561Z,1.1
2022-12-23T12:55:48.974Z,1.1
2022-12-23T13:01:39.003Z,1.1
2022-12-23T13:07:26.441Z,1.1
2022-12-23T13:13:17.103Z,1
2022-12-23T13:19:06.690Z,1
2022-12-23T13:24:58.047Z,1.3
2022-12-23T13:30:46.244Z,1
2022-12-23T13:36:35.953Z,0.8
2022-12-23T13:42:24.119Z,0.7
2022-12-23T13:48:12.756Z,0.6
2022-12-23T13:54:06.176Z,1
2022-12-23T14:00:01.184Z,0.8
2022-12-23T14:05:50.093Z,1
2022-12-23T14:11:33.358Z,0.8
2022-12-23T14:17:20.079Z,0.6
2022-12-23T14:23:09.103Z,0.8
2022-12-23T14:28:59.586Z,0.6
2022-12-23T14:34:47.455Z,0.8
2022-12-23T14:40:43.222Z,1.2
2022-12-23T14:46:39.940Z,1.3
2022-12-23T14:52:40.887Z,1.4
2022-12-23T14:58:34.485Z,1.6
2022-12-23T15:04:20.675Z,1.6
2022-12-23T15:10:05.449Z,1.8
2022-12-23T15:16:03.249Z,1.6
2022-12-23T15:22:03.299Z,1.9
2022-12-23T15:27:48.730Z,1.8
2022-12-23T15:39:38.653Z,2.4
2022-12-23T15:45:38.527Z,2.2
2022-12-23T15:52:05.536Z,2.4
2022-12-23T15:57:30.136Z,2.4
2022-12-23T16:03:22.994Z,2.3
2022-12-23T16:09:07.149Z,2.5
2022-12-23T16:14:51.767Z,2.2
2022-12-23T16:20:39.715Z,2.2
2022-12-23T16:26:22.933Z,2.5
2022-12-23T16:32:06.986Z,2.9
2022-12-23T16:37:53.310Z,2.8
2022-12-23T16:43:36.170Z,2.4
2022-12-23T16:49:20.935Z,2.8
2022-12-23T16:55:03.864Z,2.9
2022-12-23T17:00:47.026Z,2.3
2022-12-23T17:06:30.213Z,2.7
2022-12-23T17:12:13.888Z,2.9
2022-12-23T17:17:57.127Z,2.6
2022-12-23T17:23:40.941Z,2.8
2022-12-23T17:29:25.901Z,2.8
2022-12-23T17:35:15.002Z,3.5
2022-12-23T17:40:58.657Z,2.9
2022-12-23T17:46:42.699Z,3.1
2022-12-23T17:52:25.914Z,3.1
2022-12-23T17:58:08.947Z,3.1
2022-12-23T18:03:51.922Z,3.3
2022-12-23T18:09:34.897Z,3.4
2022-12-23T18:15:20.824Z,3.2
2022-12-23T18:21:03.567Z,3
2022-12-23T18:26:46.736Z,3.1
2022-12-23T18:32:30.063Z,2.9
2022-12-23T18:38:13.087Z,2.8
2022-12-23T18:43:56.177Z,2.8
2022-12-23T18:49:39.121Z,3.1
2022-12-23T18:55:22.056Z,3.6
2022-12-23T19:01:05.080Z,2.3
2022-12-23T19:06:47.961Z,2.7
2022-12-23T19:12:30.778Z,2.5
2022-12-23T19:18:14.497Z,2.5
2022-12-23T19:23:57.484Z,2.6
2022-12-23T19:29:40.205Z,2.5
2022-12-23T19:35:23.262Z,2.3
2022-12-23T19:41:06.097Z,3
2022-12-23T19:46:49.979Z,2.6
2022-12-23T19:52:33.055Z,2.7
2022-12-23T19:58:15.618Z,3.2
2022-12-23T20:03:58.831Z,3.3
2022-12-23T20:09:41.822Z,2.9
2022-12-23T20:15:24.807Z,2.7
2022-12-23T20:21:07.852Z,2.2
2022-12-23T20:26:51.926Z,2.7
2022-12-23T20:32:34.833Z,2.8
2022-12-23T20:38:17.863Z,3.1
2022-12-23T20:44:40.863Z,2.4
2022-12-23T20:50:03.899Z,3.1
2022-12-23T20:55:46.690Z,3.2
2022-12-23T21:01:31.195Z,3.1
2022-12-23T21:07:14.302Z,3
2022-12-23T21:12:57.595Z,2.6
2022-12-23T21:18:41.160Z,2.8
2022-12-23T21:24:24.575Z,3.1
2022-12-23T21:30:08.213Z,2.7
2022-12-23T21:35:51.145Z,3
2022-12-23T21:41:35.989Z,3.2
2022-12-23T21:47:19.121Z,3.2
2022-12-23T21:53:02.098Z,3.2
2022-12-23T21:58:45.618Z,2.9
2022-12-23T22:04:28.614Z,2.9
2022-12-23T22:10:12.417Z,2.6
2022-12-23T22:15:55.462Z,2.7
2022-12-23T22:21:38.730Z,2.9
2022-12-23T22:27:21.894Z,2.7
2022-12-23T22:33:04.930Z,2.6
2022-12-23T22:38:54.902Z,2.5
2022-12-23T22:44:38.042Z,3
2022-12-23T22:50:21.202Z,3.1
2022-12-23T22:56:05.080Z,2.5
2022-12-23T23:01:48.288Z,2.5
2022-12-23T23:07:48.786Z,3.3
2022-12-23T23:13:34.705Z,4
2022-12-23T23:19:18.153Z,3
2022-12-23T23:25:01.405Z,2.8
2022-12-23T23:30:44.318Z,3.2
2022-12-23T23:36:27.517Z,2.7
2022-12-23T23:42:10.890Z,2.7
2022-12-23T23:47:53.797Z,2.8
2022-12-23T23:53:36.679Z,2.7
2022-12-23T23:59:19.717Z,3.5
